Pagina principală
METAR-TAF:

METAR-TAF

Aeroporturi :

Greenwood, Mississippi, Statele Unite ale Americii

Latitudine: 33-29-33N, longitudine: 090-05-01W, elevație: 47 m

Observații meteo curente

Raportul a fost făcut în urmă cu 19 de minute, la 23:53 UTC
Vânt 4 kt de la Est
Temperatură 28°C
Umiditate 66%
Presiune 1016 hPa
Vizibilitate: 16.1 km
Cer senin

METAR: KGWO 182353Z AUTO 09004KT 10SM CLR 28/21 A3001 RMK AO2 SLP161 T02780211 10294 20278 55003

Ora: 19:12 (00:12 UTC)

Prognoză

Raportul a fost făcut în urmă cu 36 de minute, la 23:36 UTC
Prognoză valabilă de la 19 ora 00 UTC la 19 ora 24 UTC
Vânt 6 kt de la Est
Vizibilitate: 10 km
Total acoperit la o înălțime de 15000 picior

TAF: KGWO 182336Z 1900/1924 09006KT P6SM OVC150

Observații și prognoze meteo pentru peste 4.000 de aeroporturi (rapoarte METAR și TAF).

Stațiile disponibile sunt reprezentate pe hartă prin puncte galbene și roșii.

Țineți indicatorul mouse-ului pe punctul dorit pentru a vedea denumirea stației.

Apoi, faceți clic pentru a vedea observațiile și prognozele meteorologice.

Pentru a schimba harta: Pentru mărire, faceți clic pe butoanele verzi cu cruce neagră; pentru micșorare, pe butonul verde cu o liniuță; pentru hărți învecinate, pe săgețile verzi.


METAR-TAF: